sensor_id;sensor_type;location;lat;lon;timestamp;P1;durP1;ratioP1;P2;durP2;ratioP2
55700;SDS011;41604;43.142;20.512;2024-03-02T00:00:21;71.50;;;38.92;;
55700;SDS011;41604;43.142;20.512;2024-03-02T00:02:48;61.38;;;36.58;;
55700;SDS011;41604;43.142;20.512;2024-03-02T00:05:17;58.47;;;34.53;;
55700;SDS011;41604;43.142;20.512;2024-03-02T00:07:47;62.35;;;34.53;;
55700;SDS011;41604;43.142;20.512;2024-03-02T00:10:34;56.17;;;33.85;;
55700;SDS011;41604;43.142;20.512;2024-03-02T00:13:04;60.08;;;33.33;;
55700;SDS011;41604;43.142;20.512;2024-03-02T00:18:40;56.08;;;32.38;;
55700;SDS011;41604;43.142;20.512;2024-03-02T00:21:06;58.55;;;34.55;;
55700;SDS011;41604;43.142;20.512;2024-03-02T00:23:36;63.05;;;37.58;;
55700;SDS011;41604;43.142;20.512;2024-03-02T00:26:03;66.07;;;38.83;;
55700;SDS011;41604;43.142;20.512;2024-03-02T00:28:34;71.85;;;44.15;;
55700;SDS011;41604;43.142;20.512;2024-03-02T00:31:11;74.65;;;46.97;;
55700;SDS011;41604;43.142;20.512;2024-03-02T00:33:40;75.13;;;48.22;;
55700;SDS011;41604;43.142;20.512;2024-03-02T00:36:10;80.05;;;49.25;;
55700;SDS011;41604;43.142;20.512;2024-03-02T00:38:47;72.80;;;45.90;;
55700;SDS011;41604;43.142;20.512;2024-03-02T00:41:24;71.45;;;46.05;;
55700;SDS011;41604;43.142;20.512;2024-03-02T00:44:05;72.65;;;44.08;;
55700;SDS011;41604;43.142;20.512;2024-03-02T00:46:34;68.05;;;40.97;;
55700;SDS011;41604;43.142;20.512;2024-03-02T00:49:01;66.93;;;41.70;;
55700;SDS011;41604;43.142;20.512;2024-03-02T00:51:36;69.78;;;42.03;;
55700;SDS011;41604;43.142;20.512;2024-03-02T00:54:07;61.35;;;40.30;;
55700;SDS011;41604;43.142;20.512;2024-03-02T00:56:34;69.80;;;41.42;;
55700;SDS011;41604;43.142;20.512;2024-03-02T00:59:00;65.13;;;41.97;;
55700;SDS011;41604;43.142;20.512;2024-03-02T01:01:26;65.22;;;42.30;;
55700;SDS011;41604;43.142;20.512;2024-03-02T01:03:52;74.00;;;44.05;;
55700;SDS011;41604;43.142;20.512;2024-03-02T01:06:18;73.90;;;46.60;;
55700;SDS011;41604;43.142;20.512;2024-03-02T01:08:44;62.38;;;39.72;;
55700;SDS011;41604;43.142;20.512;2024-03-02T01:11:11;62.38;;;38.75;;
55700;SDS011;41604;43.142;20.512;2024-03-02T01:13:37;61.42;;;36.05;;
55700;SDS011;41604;43.142;20.512;2024-03-02T01:16:03;61.40;;;35.83;;
55700;SDS011;41604;43.142;20.512;2024-03-02T01:18:29;61.83;;;36.92;;
55700;SDS011;41604;43.142;20.512;2024-03-02T01:20:56;57.30;;;36.40;;
55700;SDS011;41604;43.142;20.512;2024-03-02T01:23:22;66.47;;;36.10;;
55700;SDS011;41604;43.142;20.512;2024-03-02T01:25:48;55.85;;;30.35;;
55700;SDS011;41604;43.142;20.512;2024-03-02T01:28:15;53.90;;;29.00;;
55700;SDS011;41604;43.142;20.512;2024-03-02T01:30:41;45.42;;;26.10;;
55700;SDS011;41604;43.142;20.512;2024-03-02T01:33:07;49.63;;;26.77;;
55700;SDS011;41604;43.142;20.512;2024-03-02T01:35:33;42.22;;;23.50;;
55700;SDS011;41604;43.142;20.512;2024-03-02T01:38:00;44.78;;;24.38;;
55700;SDS011;41604;43.142;20.512;2024-03-02T01:40:26;35.92;;;22.27;;
55700;SDS011;41604;43.142;20.512;2024-03-02T01:42:55;37.65;;;21.33;;
55700;SDS011;41604;43.142;20.512;2024-03-02T01:45:23;35.45;;;21.15;;
55700;SDS011;41604;43.142;20.512;2024-03-02T01:47:49;41.13;;;20.35;;
55700;SDS011;41604;43.142;20.512;2024-03-02T01:50:15;33.92;;;18.00;;
55700;SDS011;41604;43.142;20.512;2024-03-02T01:52:49;31.52;;;18.05;;
55700;SDS011;41604;43.142;20.512;2024-03-02T01:55:15;33.80;;;20.08;;
55700;SDS011;41604;43.142;20.512;2024-03-02T01:57:41;37.95;;;20.58;;
55700;SDS011;41604;43.142;20.512;2024-03-02T02:00:10;35.42;;;21.20;;
55700;SDS011;41604;43.142;20.512;2024-03-02T02:02:36;38.90;;;24.13;;
55700;SDS011;41604;43.142;20.512;2024-03-02T02:05:02;43.38;;;23.77;;
55700;SDS011;41604;43.142;20.512;2024-03-02T02:07:28;43.10;;;24.52;;
55700;SDS011;41604;43.142;20.512;2024-03-02T02:09:54;42.60;;;24.38;;
55700;SDS011;41604;43.142;20.512;2024-03-02T02:12:20;45.92;;;25.52;;
55700;SDS011;41604;43.142;20.512;2024-03-02T02:14:49;68.63;;;35.75;;
55700;SDS011;41604;43.142;20.512;2024-03-02T02:17:17;53.42;;;32.00;;
55700;SDS011;41604;43.142;20.512;2024-03-02T02:19:43;49.47;;;27.02;;
55700;SDS011;41604;43.142;20.512;2024-03-02T02:22:12;44.70;;;25.00;;
55700;SDS011;41604;43.142;20.512;2024-03-02T02:24:40;51.80;;;26.45;;
55700;SDS011;41604;43.142;20.512;2024-03-02T02:27:07;47.72;;;26.25;;
55700;SDS011;41604;43.142;20.512;2024-03-02T02:29:33;45.97;;;27.10;;
55700;SDS011;41604;43.142;20.512;2024-03-02T02:31:59;46.35;;;27.70;;
55700;SDS011;41604;43.142;20.512;2024-03-02T02:34:24;50.22;;;28.25;;
55700;SDS011;41604;43.142;20.512;2024-03-02T02:36:50;52.05;;;27.88;;
55700;SDS011;41604;43.142;20.512;2024-03-02T02:39:17;46.03;;;27.10;;
55700;SDS011;41604;43.142;20.512;2024-03-02T02:41:45;54.25;;;29.48;;
55700;SDS011;41604;43.142;20.512;2024-03-02T02:44:11;60.95;;;34.20;;
55700;SDS011;41604;43.142;20.512;2024-03-02T02:46:38;56.25;;;32.85;;
55700;SDS011;41604;43.142;20.512;2024-03-02T02:49:04;54.63;;;33.70;;
55700;SDS011;41604;43.142;20.512;2024-03-02T02:51:30;44.08;;;25.77;;
55700;SDS011;41604;43.142;20.512;2024-03-02T02:53:56;42.28;;;24.00;;
55700;SDS011;41604;43.142;20.512;2024-03-02T02:56:22;54.80;;;29.77;;
55700;SDS011;41604;43.142;20.512;2024-03-02T02:58:47;46.60;;;27.95;;
55700;SDS011;41604;43.142;20.512;2024-03-02T03:01:15;48.75;;;27.67;;
55700;SDS011;41604;43.142;20.512;2024-03-02T03:03:44;45.83;;;28.17;;
55700;SDS011;41604;43.142;20.512;2024-03-02T03:06:11;49.35;;;28.85;;
55700;SDS011;41604;43.142;20.512;2024-03-02T03:08:37;70.43;;;39.00;;
55700;SDS011;41604;43.142;20.512;2024-03-02T03:11:03;46.97;;;29.63;;
55700;SDS011;41604;43.142;20.512;2024-03-02T03:13:30;51.15;;;28.30;;
55700;SDS011;41604;43.142;20.512;2024-03-02T03:15:57;43.90;;;25.83;;
55700;SDS011;41604;43.142;20.512;2024-03-02T03:18:22;46.72;;;27.10;;
55700;SDS011;41604;43.142;20.512;2024-03-02T03:20:48;48.70;;;27.48;;
55700;SDS011;41604;43.142;20.512;2024-03-02T03:23:15;45.85;;;29.17;;
55700;SDS011;41604;43.142;20.512;2024-03-02T03:25:41;52.85;;;29.90;;
55700;SDS011;41604;43.142;20.512;2024-03-02T03:28:08;53.42;;;29.33;;
55700;SDS011;41604;43.142;20.512;2024-03-02T03:30:36;47.65;;;27.58;;
55700;SDS011;41604;43.142;20.512;2024-03-02T03:33:03;45.08;;;26.25;;
55700;SDS011;41604;43.142;20.512;2024-03-02T03:35:31;42.65;;;26.20;;
55700;SDS011;41604;43.142;20.512;2024-03-02T03:37:57;43.83;;;26.70;;
55700;SDS011;41604;43.142;20.512;2024-03-02T03:40:22;42.10;;;25.67;;
55700;SDS011;41604;43.142;20.512;2024-03-02T03:42:48;42.30;;;24.27;;
55700;SDS011;41604;43.142;20.512;2024-03-02T03:45:15;39.88;;;25.10;;
55700;SDS011;41604;43.142;20.512;2024-03-02T03:47:41;50.58;;;29.33;;
55700;SDS011;41604;43.142;20.512;2024-03-02T03:50:07;46.65;;;28.52;;
55700;SDS011;41604;43.142;20.512;2024-03-02T03:52:33;44.17;;;27.98;;
55700;SDS011;41604;43.142;20.512;2024-03-02T03:54:59;45.05;;;27.90;;
55700;SDS011;41604;43.142;20.512;2024-03-02T03:57:26;40.65;;;26.42;;
55700;SDS011;41604;43.142;20.512;2024-03-02T03:59:52;39.97;;;22.52;;
55700;SDS011;41604;43.142;20.512;2024-03-02T04:02:18;39.00;;;22.95;;
55700;SDS011;41604;43.142;20.512;2024-03-02T04:04:43;36.35;;;20.75;;
55700;SDS011;41604;43.142;20.512;2024-03-02T04:07:09;39.88;;;22.48;;
55700;SDS011;41604;43.142;20.512;2024-03-02T04:09:35;39.97;;;22.23;;
55700;SDS011;41604;43.142;20.512;2024-03-02T04:12:01;36.35;;;23.80;;
55700;SDS011;41604;43.142;20.512;2024-03-02T04:14:27;39.45;;;24.27;;
55700;SDS011;41604;43.142;20.512;2024-03-02T04:16:52;44.38;;;28.15;;
55700;SDS011;41604;43.142;20.512;2024-03-02T04:19:18;41.47;;;24.92;;
55700;SDS011;41604;43.142;20.512;2024-03-02T04:21:44;44.20;;;26.02;;
55700;SDS011;41604;43.142;20.512;2024-03-02T04:24:09;48.75;;;25.75;;
55700;SDS011;41604;43.142;20.512;2024-03-02T04:26:35;40.53;;;26.52;;
55700;SDS011;41604;43.142;20.512;2024-03-02T04:29:01;52.13;;;28.90;;
55700;SDS011;41604;43.142;20.512;2024-03-02T04:31:27;45.83;;;29.25;;
55700;SDS011;41604;43.142;20.512;2024-03-02T04:33:52;49.97;;;29.17;;
55700;SDS011;41604;43.142;20.512;2024-03-02T04:36:19;53.88;;;29.52;;
55700;SDS011;41604;43.142;20.512;2024-03-02T04:38:46;43.40;;;28.05;;
55700;SDS011;41604;43.142;20.512;2024-03-02T04:41:11;45.13;;;28.27;;
55700;SDS011;41604;43.142;20.512;2024-03-02T04:43:37;57.22;;;32.83;;
55700;SDS011;41604;43.142;20.512;2024-03-02T04:46:04;57.40;;;35.00;;
55700;SDS011;41604;43.142;20.512;2024-03-02T04:48:32;55.10;;;33.35;;
55700;SDS011;41604;43.142;20.512;2024-03-02T04:50:59;52.05;;;32.90;;
55700;SDS011;41604;43.142;20.512;2024-03-02T04:53:25;50.33;;;30.88;;
55700;SDS011;41604;43.142;20.512;2024-03-02T04:55:50;44.65;;;29.05;;
55700;SDS011;41604;43.142;20.512;2024-03-02T04:58:35;41.38;;;25.70;;
55700;SDS011;41604;43.142;20.512;2024-03-02T05:01:01;39.15;;;25.80;;
55700;SDS011;41604;43.142;20.512;2024-03-02T05:03:26;41.88;;;26.67;;
55700;SDS011;41604;43.142;20.512;2024-03-02T05:05:52;44.05;;;27.65;;
55700;SDS011;41604;43.142;20.512;2024-03-02T05:08:18;41.83;;;26.50;;
55700;SDS011;41604;43.142;20.512;2024-03-02T05:10:44;44.60;;;27.15;;
55700;SDS011;41604;43.142;20.512;2024-03-02T05:13:10;43.67;;;27.90;;
55700;SDS011;41604;43.142;20.512;2024-03-02T05:15:35;43.60;;;28.75;;
55700;SDS011;41604;43.142;20.512;2024-03-02T05:18:01;48.00;;;29.48;;
55700;SDS011;41604;43.142;20.512;2024-03-02T05:20:30;63.15;;;41.75;;
55700;SDS011;41604;43.142;20.512;2024-03-02T05:22:56;63.70;;;40.33;;
55700;SDS011;41604;43.142;20.512;2024-03-02T05:25:21;59.65;;;39.33;;
55700;SDS011;41604;43.142;20.512;2024-03-02T05:27:47;65.75;;;41.40;;
55700;SDS011;41604;43.142;20.512;2024-03-02T05:30:13;68.55;;;45.00;;
55700;SDS011;41604;43.142;20.512;2024-03-02T05:32:39;67.75;;;45.60;;
55700;SDS011;41604;43.142;20.512;2024-03-02T05:35:05;70.18;;;43.92;;
55700;SDS011;41604;43.142;20.512;2024-03-02T05:37:32;69.25;;;43.15;;
55700;SDS011;41604;43.142;20.512;2024-03-02T05:39:57;60.70;;;38.42;;
55700;SDS011;41604;43.142;20.512;2024-03-02T05:42:24;57.97;;;35.30;;
55700;SDS011;41604;43.142;20.512;2024-03-02T05:44:50;50.97;;;32.85;;
55700;SDS011;41604;43.142;20.512;2024-03-02T05:47:16;50.97;;;30.75;;
55700;SDS011;41604;43.142;20.512;2024-03-02T05:49:41;48.85;;;31.10;;
55700;SDS011;41604;43.142;20.512;2024-03-02T05:52:08;56.20;;;32.40;;
55700;SDS011;41604;43.142;20.512;2024-03-02T05:54:34;44.80;;;28.70;;
55700;SDS011;41604;43.142;20.512;2024-03-02T05:56:59;42.28;;;30.95;;
55700;SDS011;41604;43.142;20.512;2024-03-02T05:59:41;43.17;;;28.63;;
55700;SDS011;41604;43.142;20.512;2024-03-02T06:02:08;38.85;;;23.27;;
55700;SDS011;41604;43.142;20.512;2024-03-02T06:04:34;34.20;;;21.23;;
55700;SDS011;41604;43.142;20.512;2024-03-02T06:07:00;39.53;;;24.90;;
55700;SDS011;41604;43.142;20.512;2024-03-02T06:09:25;35.10;;;24.45;;
55700;SDS011;41604;43.142;20.512;2024-03-02T06:11:51;37.97;;;23.70;;
55700;SDS011;41604;43.142;20.512;2024-03-02T06:14:17;33.13;;;22.65;;
55700;SDS011;41604;43.142;20.512;2024-03-02T06:16:43;34.55;;;21.10;;
55700;SDS011;41604;43.142;20.512;2024-03-02T06:19:08;35.30;;;21.38;;
55700;SDS011;41604;43.142;20.512;2024-03-02T06:21:34;78.60;;;58.97;;
55700;SDS011;41604;43.142;20.512;2024-03-02T06:24:00;75.63;;;63.53;;
55700;SDS011;41604;43.142;20.512;2024-03-02T06:26:26;50.42;;;36.53;;
55700;SDS011;41604;43.142;20.512;2024-03-02T06:28:54;36.22;;;29.00;;
55700;SDS011;41604;43.142;20.512;2024-03-02T06:31:20;44.03;;;32.65;;
55700;SDS011;41604;43.142;20.512;2024-03-02T06:33:46;103.80;;;64.63;;
55700;SDS011;41604;43.142;20.512;2024-03-02T06:36:12;71.88;;;47.08;;
55700;SDS011;41604;43.142;20.512;2024-03-02T06:38:40;80.88;;;69.85;;
55700;SDS011;41604;43.142;20.512;2024-03-02T06:41:06;730.20;;;483.52;;
55700;SDS011;41604;43.142;20.512;2024-03-02T06:43:32;885.78;;;581.03;;
55700;SDS011;41604;43.142;20.512;2024-03-02T06:45:58;274.00;;;170.65;;
55700;SDS011;41604;43.142;20.512;2024-03-02T06:48:24;96.63;;;66.18;;
55700;SDS011;41604;43.142;20.512;2024-03-02T06:50:50;44.35;;;29.58;;
55700;SDS011;41604;43.142;20.512;2024-03-02T06:53:17;33.60;;;20.60;;
55700;SDS011;41604;43.142;20.512;2024-03-02T06:55:44;33.95;;;19.80;;
55700;SDS011;41604;43.142;20.512;2024-03-02T06:58:13;32.45;;;20.83;;
55700;SDS011;41604;43.142;20.512;2024-03-02T07:00:41;36.00;;;22.80;;
55700;SDS011;41604;43.142;20.512;2024-03-02T07:03:07;42.33;;;28.02;;
55700;SDS011;41604;43.142;20.512;2024-03-02T07:05:33;36.78;;;22.90;;
55700;SDS011;41604;43.142;20.512;2024-03-02T07:07:59;37.63;;;26.25;;
55700;SDS011;41604;43.142;20.512;2024-03-02T07:10:26;35.72;;;24.65;;
55700;SDS011;41604;43.142;20.512;2024-03-02T07:12:52;48.90;;;34.22;;
55700;SDS011;41604;43.142;20.512;2024-03-02T07:15:18;46.15;;;29.55;;
55700;SDS011;41604;43.142;20.512;2024-03-02T07:17:54;37.28;;;22.98;;
55700;SDS011;41604;43.142;20.512;2024-03-02T07:20:20;38.00;;;24.17;;
55700;SDS011;41604;43.142;20.512;2024-03-02T07:22:46;34.60;;;24.30;;
55700;SDS011;41604;43.142;20.512;2024-03-02T07:25:12;41.88;;;27.23;;
55700;SDS011;41604;43.142;20.512;2024-03-02T07:27:38;63.92;;;48.33;;
55700;SDS011;41604;43.142;20.512;2024-03-02T07:30:05;35.45;;;24.30;;
55700;SDS011;41604;43.142;20.512;2024-03-02T07:32:32;39.10;;;23.88;;
55700;SDS011;41604;43.142;20.512;2024-03-02T07:34:58;37.20;;;24.17;;
55700;SDS011;41604;43.142;20.512;2024-03-02T07:37:24;36.60;;;25.15;;
55700;SDS011;41604;43.142;20.512;2024-03-02T07:39:50;34.10;;;21.13;;
55700;SDS011;41604;43.142;20.512;2024-03-02T07:42:16;33.58;;;22.58;;
55700;SDS011;41604;43.142;20.512;2024-03-02T07:44:45;35.60;;;21.30;;
55700;SDS011;41604;43.142;20.512;2024-03-02T07:47:11;35.33;;;22.92;;
55700;SDS011;41604;43.142;20.512;2024-03-02T07:49:38;32.40;;;21.50;;
55700;SDS011;41604;43.142;20.512;2024-03-02T07:52:04;33.92;;;21.30;;
55700;SDS011;41604;43.142;20.512;2024-03-02T07:54:30;33.30;;;20.85;;
55700;SDS011;41604;43.142;20.512;2024-03-02T07:56:56;32.00;;;20.52;;
55700;SDS011;41604;43.142;20.512;2024-03-02T07:59:22;32.22;;;18.83;;
55700;SDS011;41604;43.142;20.512;2024-03-02T08:01:48;28.75;;;19.77;;
55700;SDS011;41604;43.142;20.512;2024-03-02T08:04:15;37.20;;;21.92;;
55700;SDS011;41604;43.142;20.512;2024-03-02T08:06:42;42.78;;;23.80;;
55700;SDS011;41604;43.142;20.512;2024-03-02T08:09:08;30.05;;;20.52;;
55700;SDS011;41604;43.142;20.512;2024-03-02T08:11:37;26.00;;;16.08;;
55700;SDS011;41604;43.142;20.512;2024-03-02T08:14:03;23.75;;;15.05;;
55700;SDS011;41604;43.142;20.512;2024-03-02T08:16:29;25.23;;;15.20;;
55700;SDS011;41604;43.142;20.512;2024-03-02T08:18:55;27.23;;;16.77;;
55700;SDS011;41604;43.142;20.512;2024-03-02T08:21:25;21.65;;;14.40;;
55700;SDS011;41604;43.142;20.512;2024-03-02T08:23:51;21.20;;;12.63;;
55700;SDS011;41604;43.142;20.512;2024-03-02T08:26:17;16.27;;;9.93;;
55700;SDS011;41604;43.142;20.512;2024-03-02T08:28:43;20.85;;;10.43;;
55700;SDS011;41604;43.142;20.512;2024-03-02T08:31:09;19.60;;;9.60;;
55700;SDS011;41604;43.142;20.512;2024-03-02T08:33:35;20.73;;;12.35;;
55700;SDS011;41604;43.142;20.512;2024-03-02T08:36:02;14.90;;;7.85;;
55700;SDS011;41604;43.142;20.512;2024-03-02T08:38:28;21.13;;;8.68;;
55700;SDS011;41604;43.142;20.512;2024-03-02T08:40:54;17.55;;;7.90;;
55700;SDS011;41604;43.142;20.512;2024-03-02T08:43:20;19.75;;;9.23;;
55700;SDS011;41604;43.142;20.512;2024-03-02T08:45:47;15.32;;;9.05;;
55700;SDS011;41604;43.142;20.512;2024-03-02T08:48:13;15.60;;;8.70;;
55700;SDS011;41604;43.142;20.512;2024-03-02T08:50:39;15.38;;;8.35;;
55700;SDS011;41604;43.142;20.512;2024-03-02T08:53:05;15.27;;;8.30;;
55700;SDS011;41604;43.142;20.512;2024-03-02T08:55:31;15.93;;;8.10;;
55700;SDS011;41604;43.142;20.512;2024-03-02T08:57:57;15.48;;;8.00;;
55700;SDS011;41604;43.142;20.512;2024-03-02T09:00:23;19.40;;;11.00;;
55700;SDS011;41604;43.142;20.512;2024-03-02T09:02:49;14.05;;;8.73;;
55700;SDS011;41604;43.142;20.512;2024-03-02T09:05:15;15.98;;;10.23;;
55700;SDS011;41604;43.142;20.512;2024-03-02T09:07:41;17.90;;;8.38;;
55700;SDS011;41604;43.142;20.512;2024-03-02T09:10:07;17.52;;;8.90;;
55700;SDS011;41604;43.142;20.512;2024-03-02T09:12:33;14.57;;;6.60;;
55700;SDS011;41604;43.142;20.512;2024-03-02T09:15:00;12.93;;;6.20;;
55700;SDS011;41604;43.142;20.512;2024-03-02T09:17:27;14.32;;;6.78;;
55700;SDS011;41604;43.142;20.512;2024-03-02T09:19:53;15.88;;;6.68;;
55700;SDS011;41604;43.142;20.512;2024-03-02T09:22:19;15.35;;;6.55;;
55700;SDS011;41604;43.142;20.512;2024-03-02T09:24:45;19.02;;;6.25;;
55700;SDS011;41604;43.142;20.512;2024-03-02T09:27:11;22.90;;;7.30;;
55700;SDS011;41604;43.142;20.512;2024-03-02T09:29:37;11.50;;;5.32;;
55700;SDS011;41604;43.142;20.512;2024-03-02T09:32:03;24.08;;;13.05;;
55700;SDS011;41604;43.142;20.512;2024-03-02T09:34:30;19.58;;;9.00;;
55700;SDS011;41604;43.142;20.512;2024-03-02T09:36:56;32.33;;;15.95;;
55700;SDS011;41604;43.142;20.512;2024-03-02T09:39:22;22.90;;;10.75;;
55700;SDS011;41604;43.142;20.512;2024-03-02T09:41:50;19.15;;;12.77;;
55700;SDS011;41604;43.142;20.512;2024-03-02T09:44:16;26.23;;;16.20;;
55700;SDS011;41604;43.142;20.512;2024-03-02T09:46:42;13.80;;;5.25;;
55700;SDS011;41604;43.142;20.512;2024-03-02T09:49:09;10.48;;;4.28;;
55700;SDS011;41604;43.142;20.512;2024-03-02T09:51:37;7.72;;;3.35;;
55700;SDS011;41604;43.142;20.512;2024-03-02T09:54:02;11.07;;;3.03;;
55700;SDS011;41604;43.142;20.512;2024-03-02T09:56:29;11.75;;;3.78;;
55700;SDS011;41604;43.142;20.512;2024-03-02T09:58:54;13.77;;;3.97;;
55700;SDS011;41604;43.142;20.512;2024-03-02T10:01:20;8.35;;;2.83;;
55700;SDS011;41604;43.142;20.512;2024-03-02T10:03:47;13.13;;;3.90;;
55700;SDS011;41604;43.142;20.512;2024-03-02T10:06:22;8.13;;;3.47;;
55700;SDS011;41604;43.142;20.512;2024-03-02T10:08:49;11.10;;;4.55;;
55700;SDS011;41604;43.142;20.512;2024-03-02T10:11:31;9.20;;;3.90;;
55700;SDS011;41604;43.142;20.512;2024-03-02T10:14:05;9.43;;;4.07;;
55700;SDS011;41604;43.142;20.512;2024-03-02T10:16:39;13.38;;;5.72;;
55700;SDS011;41604;43.142;20.512;2024-03-02T10:19:19;12.07;;;4.30;;
55700;SDS011;41604;43.142;20.512;2024-03-02T10:21:49;14.77;;;4.57;;
55700;SDS011;41604;43.142;20.512;2024-03-02T10:24:20;11.30;;;5.05;;
55700;SDS011;41604;43.142;20.512;2024-03-02T10:26:47;13.63;;;5.22;;
55700;SDS011;41604;43.142;20.512;2024-03-02T10:29:13;11.35;;;3.90;;
55700;SDS011;41604;43.142;20.512;2024-03-02T10:31:40;11.63;;;3.90;;
55700;SDS011;41604;43.142;20.512;2024-03-02T10:34:10;12.48;;;4.57;;
55700;SDS011;41604;43.142;20.512;2024-03-02T10:36:37;13.07;;;4.95;;
55700;SDS011;41604;43.142;20.512;2024-03-02T10:39:07;8.88;;;4.13;;
55700;SDS011;41604;43.142;20.512;2024-03-02T10:41:34;10.77;;;4.60;;
55700;SDS011;41604;43.142;20.512;2024-03-02T10:44:04;16.15;;;5.80;;
55700;SDS011;41604;43.142;20.512;2024-03-02T10:46:31;11.55;;;5.72;;
55700;SDS011;41604;43.142;20.512;2024-03-02T10:48:58;11.15;;;4.03;;
55700;SDS011;41604;43.142;20.512;2024-03-02T10:51:25;12.23;;;4.30;;
55700;SDS011;41604;43.142;20.512;2024-03-02T10:53:52;12.07;;;4.93;;
55700;SDS011;41604;43.142;20.512;2024-03-02T10:56:23;8.57;;;4.25;;
55700;SDS011;41604;43.142;20.512;2024-03-02T10:58:55;9.65;;;4.68;;
55700;SDS011;41604;43.142;20.512;2024-03-02T11:01:26;11.43;;;4.38;;
55700;SDS011;41604;43.142;20.512;2024-03-02T11:03:52;14.07;;;4.20;;
55700;SDS011;41604;43.142;20.512;2024-03-02T11:06:19;12.43;;;4.80;;
55700;SDS011;41604;43.142;20.512;2024-03-02T11:08:48;10.27;;;4.07;;
55700;SDS011;41604;43.142;20.512;2024-03-02T11:11:15;13.85;;;4.25;;
55700;SDS011;41604;43.142;20.512;2024-03-02T11:13:47;13.75;;;4.35;;
55700;SDS011;41604;43.142;20.512;2024-03-02T11:19:06;11.48;;;3.85;;
55700;SDS011;41604;43.142;20.512;2024-03-02T11:21:34;14.65;;;4.00;;
55700;SDS011;41604;43.142;20.512;2024-03-02T11:24:00;10.95;;;4.18;;
55700;SDS011;41604;43.142;20.512;2024-03-02T11:26:27;12.07;;;4.72;;
55700;SDS011;41604;43.142;20.512;2024-03-02T11:28:54;12.70;;;4.10;;
55700;SDS011;41604;43.142;20.512;2024-03-02T11:31:21;14.02;;;4.60;;
55700;SDS011;41604;43.142;20.512;2024-03-02T11:33:47;10.98;;;3.83;;
55700;SDS011;41604;43.142;20.512;2024-03-02T11:36:14;9.20;;;3.75;;
55700;SDS011;41604;43.142;20.512;2024-03-02T11:38:43;10.15;;;6.53;;
55700;SDS011;41604;43.142;20.512;2024-03-02T11:41:11;13.90;;;7.03;;
55700;SDS011;41604;43.142;20.512;2024-03-02T11:43:37;12.35;;;3.75;;
55700;SDS011;41604;43.142;20.512;2024-03-02T11:46:06;9.77;;;4.47;;
55700;SDS011;41604;43.142;20.512;2024-03-02T11:48:33;15.98;;;4.35;;
55700;SDS011;41604;43.142;20.512;2024-03-02T11:51:00;11.55;;;4.10;;
55700;SDS011;41604;43.142;20.512;2024-03-02T11:53:27;9.43;;;4.25;;
55700;SDS011;41604;43.142;20.512;2024-03-02T11:55:59;10.93;;;3.85;;
55700;SDS011;41604;43.142;20.512;2024-03-02T11:58:27;11.15;;;4.63;;
55700;SDS011;41604;43.142;20.512;2024-03-02T12:00:54;11.35;;;5.35;;
55700;SDS011;41604;43.142;20.512;2024-03-02T12:03:22;9.07;;;3.97;;
55700;SDS011;41604;43.142;20.512;2024-03-02T12:05:54;11.88;;;5.38;;
55700;SDS011;41604;43.142;20.512;2024-03-02T12:08:21;13.48;;;5.57;;
55700;SDS011;41604;43.142;20.512;2024-03-02T12:10:58;13.70;;;5.43;;
55700;SDS011;41604;43.142;20.512;2024-03-02T12:13:25;12.23;;;4.30;;
55700;SDS011;41604;43.142;20.512;2024-03-02T12:15:53;10.68;;;4.35;;
55700;SDS011;41604;43.142;20.512;2024-03-02T12:18:20;9.88;;;4.30;;
55700;SDS011;41604;43.142;20.512;2024-03-02T12:20:46;9.13;;;4.30;;
55700;SDS011;41604;43.142;20.512;2024-03-02T12:23:14;12.75;;;5.72;;
55700;SDS011;41604;43.142;20.512;2024-03-02T12:25:40;12.88;;;4.75;;
55700;SDS011;41604;43.142;20.512;2024-03-02T12:28:07;10.70;;;4.88;;
55700;SDS011;41604;43.142;20.512;2024-03-02T12:30:34;9.98;;;4.90;;
55700;SDS011;41604;43.142;20.512;2024-03-02T12:33:01;12.23;;;5.20;;
55700;SDS011;41604;43.142;20.512;2024-03-02T12:35:27;11.02;;;4.70;;
55700;SDS011;41604;43.142;20.512;2024-03-02T12:37:54;19.05;;;8.07;;
55700;SDS011;41604;43.142;20.512;2024-03-02T12:40:21;43.08;;;25.10;;
55700;SDS011;41604;43.142;20.512;2024-03-02T12:42:48;41.47;;;20.52;;
55700;SDS011;41604;43.142;20.512;2024-03-02T12:45:14;47.08;;;21.88;;
55700;SDS011;41604;43.142;20.512;2024-03-02T12:47:41;53.72;;;24.65;;
55700;SDS011;41604;43.142;20.512;2024-03-02T12:50:08;19.00;;;12.13;;
55700;SDS011;41604;43.142;20.512;2024-03-02T12:52:34;15.93;;;9.75;;
55700;SDS011;41604;43.142;20.512;2024-03-02T12:55:01;11.80;;;7.30;;
55700;SDS011;41604;43.142;20.512;2024-03-02T12:57:29;12.80;;;6.20;;
55700;SDS011;41604;43.142;20.512;2024-03-02T12:59:58;12.13;;;5.78;;
55700;SDS011;41604;43.142;20.512;2024-03-02T13:02:27;14.00;;;5.32;;
55700;SDS011;41604;43.142;20.512;2024-03-02T13:04:53;25.30;;;12.55;;
55700;SDS011;41604;43.142;20.512;2024-03-02T13:07:20;16.02;;;7.55;;
55700;SDS011;41604;43.142;20.512;2024-03-02T13:09:48;9.95;;;4.95;;
55700;SDS011;41604;43.142;20.512;2024-03-02T13:12:15;14.75;;;5.80;;
55700;SDS011;41604;43.142;20.512;2024-03-02T13:14:41;12.05;;;5.47;;
55700;SDS011;41604;43.142;20.512;2024-03-02T13:17:08;14.85;;;5.53;;
55700;SDS011;41604;43.142;20.512;2024-03-02T13:19:34;15.45;;;5.88;;
55700;SDS011;41604;43.142;20.512;2024-03-02T13:22:01;16.80;;;6.78;;
55700;SDS011;41604;43.142;20.512;2024-03-02T13:24:28;12.85;;;6.15;;
55700;SDS011;41604;43.142;20.512;2024-03-02T13:26:55;11.20;;;5.88;;
55700;SDS011;41604;43.142;20.512;2024-03-02T13:29:23;16.42;;;7.70;;
55700;SDS011;41604;43.142;20.512;2024-03-02T13:31:49;15.70;;;6.00;;
55700;SDS011;41604;43.142;20.512;2024-03-02T13:34:16;13.50;;;5.22;;
55700;SDS011;41604;43.142;20.512;2024-03-02T13:36:42;12.40;;;5.88;;
55700;SDS011;41604;43.142;20.512;2024-03-02T13:39:08;11.52;;;5.72;;
55700;SDS011;41604;43.142;20.512;2024-03-02T13:41:35;17.02;;;7.85;;
55700;SDS011;41604;43.142;20.512;2024-03-02T13:44:02;18.02;;;10.70;;
55700;SDS011;41604;43.142;20.512;2024-03-02T13:46:28;16.77;;;8.68;;
55700;SDS011;41604;43.142;20.512;2024-03-02T13:48:54;13.65;;;7.85;;
55700;SDS011;41604;43.142;20.512;2024-03-02T13:51:21;11.80;;;5.15;;
55700;SDS011;41604;43.142;20.512;2024-03-02T13:53:47;12.20;;;5.03;;
55700;SDS011;41604;43.142;20.512;2024-03-02T13:56:13;209.48;;;158.95;;
55700;SDS011;41604;43.142;20.512;2024-03-02T13:58:39;41.15;;;23.98;;
55700;SDS011;41604;43.142;20.512;2024-03-02T14:01:05;16.92;;;7.53;;
55700;SDS011;41604;43.142;20.512;2024-03-02T14:03:31;46.05;;;26.38;;
55700;SDS011;41604;43.142;20.512;2024-03-02T14:05:57;25.25;;;16.05;;
55700;SDS011;41604;43.142;20.512;2024-03-02T14:08:23;31.75;;;16.92;;
55700;SDS011;41604;43.142;20.512;2024-03-02T14:10:50;21.38;;;11.60;;
55700;SDS011;41604;43.142;20.512;2024-03-02T14:13:16;25.13;;;13.43;;
55700;SDS011;41604;43.142;20.512;2024-03-02T14:15:42;31.38;;;18.13;;
55700;SDS011;41604;43.142;20.512;2024-03-02T14:18:08;16.40;;;8.88;;